sensor_id;sensor_type;location;lat;lon;timestamp;P1;durP1;ratioP1;P2;durP2;ratioP2
46757;SDS011;32509;47.750;-3.396;2023-03-12T00:00:38;44.85;;;10.80;;
46757;SDS011;32509;47.750;-3.396;2023-03-12T00:03:05;52.72;;;10.65;;
46757;SDS011;32509;47.750;-3.396;2023-03-12T00:05:31;33.13;;;9.18;;
46757;SDS011;32509;47.750;-3.396;2023-03-12T00:07:56;47.17;;;10.55;;
46757;SDS011;32509;47.750;-3.396;2023-03-12T00:10:27;55.25;;;11.40;;
46757;SDS011;32509;47.750;-3.396;2023-03-12T00:12:53;58.53;;;12.40;;
46757;SDS011;32509;47.750;-3.396;2023-03-12T00:15:19;41.03;;;9.50;;
46757;SDS011;32509;47.750;-3.396;2023-03-12T00:17:45;51.28;;;9.95;;
46757;SDS011;32509;47.750;-3.396;2023-03-12T00:20:11;44.35;;;9.73;;
46757;SDS011;32509;47.750;-3.396;2023-03-12T00:22:37;48.20;;;11.18;;
46757;SDS011;32509;47.750;-3.396;2023-03-12T00:25:04;48.20;;;11.60;;
46757;SDS011;32509;47.750;-3.396;2023-03-12T00:27:35;56.65;;;11.00;;
46757;SDS011;32509;47.750;-3.396;2023-03-12T00:30:01;61.30;;;9.57;;
46757;SDS011;32509;47.750;-3.396;2023-03-12T00:32:28;45.80;;;11.30;;
46757;SDS011;32509;47.750;-3.396;2023-03-12T00:34:54;41.60;;;10.45;;
46757;SDS011;32509;47.750;-3.396;2023-03-12T00:37:20;48.20;;;10.55;;
46757;SDS011;32509;47.750;-3.396;2023-03-12T00:39:46;55.58;;;11.25;;
46757;SDS011;32509;47.750;-3.396;2023-03-12T00:42:12;68.47;;;11.35;;
46757;SDS011;32509;47.750;-3.396;2023-03-12T00:44:38;48.42;;;10.25;;
46757;SDS011;32509;47.750;-3.396;2023-03-12T00:47:04;49.25;;;10.90;;
46757;SDS011;32509;47.750;-3.396;2023-03-12T00:49:29;39.97;;;8.80;;
46757;SDS011;32509;47.750;-3.396;2023-03-12T00:51:55;38.25;;;10.35;;
46757;SDS011;32509;47.750;-3.396;2023-03-12T00:54:21;51.00;;;10.40;;
46757;SDS011;32509;47.750;-3.396;2023-03-12T00:56:47;42.35;;;9.10;;
46757;SDS011;32509;47.750;-3.396;2023-03-12T00:59:14;47.30;;;11.43;;
46757;SDS011;32509;47.750;-3.396;2023-03-12T01:01:40;50.70;;;10.50;;
46757;SDS011;32509;47.750;-3.396;2023-03-12T01:04:07;43.90;;;11.68;;
46757;SDS011;32509;47.750;-3.396;2023-03-12T01:06:36;48.22;;;10.40;;
46757;SDS011;32509;47.750;-3.396;2023-03-12T01:09:02;63.70;;;13.45;;
46757;SDS011;32509;47.750;-3.396;2023-03-12T01:11:30;43.95;;;9.27;;
46757;SDS011;32509;47.750;-3.396;2023-03-12T01:13:59;39.63;;;8.77;;
46757;SDS011;32509;47.750;-3.396;2023-03-12T01:16:26;87.47;;;14.40;;
46757;SDS011;32509;47.750;-3.396;2023-03-12T01:18:54;52.50;;;9.80;;
46757;SDS011;32509;47.750;-3.396;2023-03-12T01:21:21;49.92;;;9.38;;
46757;SDS011;32509;47.750;-3.396;2023-03-12T01:23:47;54.67;;;12.18;;
46757;SDS011;32509;47.750;-3.396;2023-03-12T01:26:13;55.63;;;10.98;;
46757;SDS011;32509;47.750;-3.396;2023-03-12T01:28:39;40.60;;;9.88;;
46757;SDS011;32509;47.750;-3.396;2023-03-12T01:31:06;41.00;;;8.65;;
46757;SDS011;32509;47.750;-3.396;2023-03-12T01:33:33;63.28;;;11.85;;
46757;SDS011;32509;47.750;-3.396;2023-03-12T01:36:01;60.20;;;12.93;;
46757;SDS011;32509;47.750;-3.396;2023-03-12T01:38:27;56.58;;;10.88;;
46757;SDS011;32509;47.750;-3.396;2023-03-12T01:40:55;64.70;;;13.10;;
46757;SDS011;32509;47.750;-3.396;2023-03-12T01:43:26;47.35;;;9.95;;
46757;SDS011;32509;47.750;-3.396;2023-03-12T01:48:54;48.05;;;11.15;;
46757;SDS011;32509;47.750;-3.396;2023-03-12T01:51:29;40.83;;;9.30;;
46757;SDS011;32509;47.750;-3.396;2023-03-12T01:54:22;70.28;;;13.60;;
46757;SDS011;32509;47.750;-3.396;2023-03-12T01:56:54;45.53;;;9.60;;
46757;SDS011;32509;47.750;-3.396;2023-03-12T01:59:25;69.60;;;12.90;;
46757;SDS011;32509;47.750;-3.396;2023-03-12T02:02:13;50.95;;;13.57;;
46757;SDS011;32509;47.750;-3.396;2023-03-12T02:04:39;44.92;;;12.15;;
46757;SDS011;32509;47.750;-3.396;2023-03-12T02:07:12;57.10;;;11.32;;
46757;SDS011;32509;47.750;-3.396;2023-03-12T02:09:43;45.08;;;11.40;;
46757;SDS011;32509;47.750;-3.396;2023-03-12T02:12:11;38.10;;;11.95;;
46757;SDS011;32509;47.750;-3.396;2023-03-12T02:14:37;47.38;;;11.45;;
46757;SDS011;32509;47.750;-3.396;2023-03-12T02:17:03;38.33;;;10.93;;
46757;SDS011;32509;47.750;-3.396;2023-03-12T02:22:11;51.55;;;11.43;;
46757;SDS011;32509;47.750;-3.396;2023-03-12T02:27:15;56.92;;;11.68;;
46757;SDS011;32509;47.750;-3.396;2023-03-12T02:29:42;55.90;;;11.93;;
46757;SDS011;32509;47.750;-3.396;2023-03-12T02:32:12;46.92;;;10.63;;
46757;SDS011;32509;47.750;-3.396;2023-03-12T02:34:50;47.55;;;10.40;;
46757;SDS011;32509;47.750;-3.396;2023-03-12T02:37:17;47.10;;;12.27;;
46757;SDS011;32509;47.750;-3.396;2023-03-12T02:39:45;47.63;;;11.18;;
46757;SDS011;32509;47.750;-3.396;2023-03-12T02:42:17;58.03;;;12.25;;
46757;SDS011;32509;47.750;-3.396;2023-03-12T02:44:44;46.65;;;11.10;;
46757;SDS011;32509;47.750;-3.396;2023-03-12T02:47:10;44.88;;;10.52;;
46757;SDS011;32509;47.750;-3.396;2023-03-12T02:49:36;47.20;;;11.43;;
46757;SDS011;32509;47.750;-3.396;2023-03-12T02:52:02;35.90;;;9.75;;
46757;SDS011;32509;47.750;-3.396;2023-03-12T02:54:28;48.03;;;10.70;;
46757;SDS011;32509;47.750;-3.396;2023-03-12T02:56:54;51.28;;;12.07;;
46757;SDS011;32509;47.750;-3.396;2023-03-12T02:59:20;43.55;;;10.73;;
46757;SDS011;32509;47.750;-3.396;2023-03-12T03:01:54;51.50;;;11.77;;
46757;SDS011;32509;47.750;-3.396;2023-03-12T03:04:22;41.50;;;8.13;;
46757;SDS011;32509;47.750;-3.396;2023-03-12T03:06:48;49.40;;;10.73;;
46757;SDS011;32509;47.750;-3.396;2023-03-12T03:09:14;54.42;;;10.60;;
46757;SDS011;32509;47.750;-3.396;2023-03-12T03:11:40;33.15;;;8.68;;
46757;SDS011;32509;47.750;-3.396;2023-03-12T03:14:06;50.22;;;10.55;;
46757;SDS011;32509;47.750;-3.396;2023-03-12T03:16:32;48.35;;;10.35;;
46757;SDS011;32509;47.750;-3.396;2023-03-12T03:18:58;44.53;;;11.10;;
46757;SDS011;32509;47.750;-3.396;2023-03-12T03:21:24;38.90;;;10.55;;
46757;SDS011;32509;47.750;-3.396;2023-03-12T03:23:50;59.47;;;11.50;;
46757;SDS011;32509;47.750;-3.396;2023-03-12T03:26:17;55.25;;;12.38;;
46757;SDS011;32509;47.750;-3.396;2023-03-12T03:28:44;49.03;;;9.40;;
46757;SDS011;32509;47.750;-3.396;2023-03-12T03:31:10;49.25;;;10.75;;
46757;SDS011;32509;47.750;-3.396;2023-03-12T03:33:36;51.92;;;10.73;;
46757;SDS011;32509;47.750;-3.396;2023-03-12T03:36:03;39.20;;;10.27;;
46757;SDS011;32509;47.750;-3.396;2023-03-12T03:38:33;48.03;;;9.65;;
46757;SDS011;32509;47.750;-3.396;2023-03-12T03:40:59;40.47;;;9.57;;
46757;SDS011;32509;47.750;-3.396;2023-03-12T03:43:25;40.80;;;8.73;;
46757;SDS011;32509;47.750;-3.396;2023-03-12T03:45:57;50.10;;;11.55;;
46757;SDS011;32509;47.750;-3.396;2023-03-12T03:48:24;36.08;;;9.23;;
46757;SDS011;32509;47.750;-3.396;2023-03-12T03:50:50;50.58;;;9.93;;
46757;SDS011;32509;47.750;-3.396;2023-03-12T03:53:16;53.58;;;10.50;;
46757;SDS011;32509;47.750;-3.396;2023-03-12T03:55:43;52.92;;;11.30;;
46757;SDS011;32509;47.750;-3.396;2023-03-12T03:58:10;51.35;;;11.77;;
46757;SDS011;32509;47.750;-3.396;2023-03-12T04:00:36;46.38;;;10.88;;
46757;SDS011;32509;47.750;-3.396;2023-03-12T04:03:02;51.97;;;13.18;;
46757;SDS011;32509;47.750;-3.396;2023-03-12T04:05:28;50.55;;;10.00;;
46757;SDS011;32509;47.750;-3.396;2023-03-12T04:07:54;46.50;;;10.23;;
46757;SDS011;32509;47.750;-3.396;2023-03-12T04:10:20;50.60;;;11.80;;
46757;SDS011;32509;47.750;-3.396;2023-03-12T04:12:48;34.50;;;10.05;;
46757;SDS011;32509;47.750;-3.396;2023-03-12T04:15:14;46.63;;;10.32;;
46757;SDS011;32509;47.750;-3.396;2023-03-12T04:17:40;39.75;;;10.15;;
46757;SDS011;32509;47.750;-3.396;2023-03-12T04:20:06;53.65;;;11.85;;
46757;SDS011;32509;47.750;-3.396;2023-03-12T04:22:33;42.50;;;10.30;;
46757;SDS011;32509;47.750;-3.396;2023-03-12T04:25:00;40.13;;;9.80;;
46757;SDS011;32509;47.750;-3.396;2023-03-12T04:27:25;41.05;;;8.32;;
46757;SDS011;32509;47.750;-3.396;2023-03-12T04:29:51;54.10;;;12.05;;
46757;SDS011;32509;47.750;-3.396;2023-03-12T04:32:17;41.13;;;10.70;;
46757;SDS011;32509;47.750;-3.396;2023-03-12T04:34:43;42.72;;;8.93;;
46757;SDS011;32509;47.750;-3.396;2023-03-12T04:37:09;38.60;;;10.45;;
46757;SDS011;32509;47.750;-3.396;2023-03-12T04:39:38;38.65;;;9.82;;
46757;SDS011;32509;47.750;-3.396;2023-03-12T04:42:04;50.22;;;10.57;;
46757;SDS011;32509;47.750;-3.396;2023-03-12T04:44:31;37.92;;;9.93;;
46757;SDS011;32509;47.750;-3.396;2023-03-12T04:46:57;45.13;;;9.43;;
46757;SDS011;32509;47.750;-3.396;2023-03-12T04:49:22;40.13;;;9.02;;
46757;SDS011;32509;47.750;-3.396;2023-03-12T04:51:48;58.15;;;11.55;;
46757;SDS011;32509;47.750;-3.396;2023-03-12T04:54:14;48.78;;;8.80;;
46757;SDS011;32509;47.750;-3.396;2023-03-12T04:56:40;33.50;;;9.43;;
46757;SDS011;32509;47.750;-3.396;2023-03-12T04:59:06;49.45;;;14.57;;
46757;SDS011;32509;47.750;-3.396;2023-03-12T05:01:33;46.72;;;10.98;;
46757;SDS011;32509;47.750;-3.396;2023-03-12T05:04:00;39.35;;;8.63;;
46757;SDS011;32509;47.750;-3.396;2023-03-12T05:06:27;35.15;;;7.72;;
46757;SDS011;32509;47.750;-3.396;2023-03-12T05:08:54;44.72;;;10.68;;
46757;SDS011;32509;47.750;-3.396;2023-03-12T05:11:20;44.25;;;8.30;;
46757;SDS011;32509;47.750;-3.396;2023-03-12T05:13:46;43.53;;;9.18;;
46757;SDS011;32509;47.750;-3.396;2023-03-12T05:16:13;44.72;;;8.98;;
46757;SDS011;32509;47.750;-3.396;2023-03-12T05:18:40;32.97;;;8.73;;
46757;SDS011;32509;47.750;-3.396;2023-03-12T05:21:07;37.60;;;8.93;;
46757;SDS011;32509;47.750;-3.396;2023-03-12T05:23:38;48.08;;;9.40;;
46757;SDS011;32509;47.750;-3.396;2023-03-12T05:26:06;56.13;;;10.10;;
46757;SDS011;32509;47.750;-3.396;2023-03-12T05:28:40;41.50;;;8.60;;
46757;SDS011;32509;47.750;-3.396;2023-03-12T05:31:07;34.97;;;10.57;;
46757;SDS011;32509;47.750;-3.396;2023-03-12T05:33:37;41.35;;;9.13;;
46757;SDS011;32509;47.750;-3.396;2023-03-12T05:36:02;41.78;;;11.20;;
46757;SDS011;32509;47.750;-3.396;2023-03-12T05:38:30;35.47;;;10.43;;
46757;SDS011;32509;47.750;-3.396;2023-03-12T05:40:57;40.92;;;9.10;;
46757;SDS011;32509;47.750;-3.396;2023-03-12T05:43:26;37.90;;;8.35;;
46757;SDS011;32509;47.750;-3.396;2023-03-12T05:45:52;36.60;;;9.02;;
46757;SDS011;32509;47.750;-3.396;2023-03-12T05:48:18;40.03;;;9.77;;
46757;SDS011;32509;47.750;-3.396;2023-03-12T05:50:44;53.00;;;9.75;;
46757;SDS011;32509;47.750;-3.396;2023-03-12T05:53:10;42.08;;;9.65;;
46757;SDS011;32509;47.750;-3.396;2023-03-12T05:55:36;30.00;;;8.07;;
46757;SDS011;32509;47.750;-3.396;2023-03-12T05:58:03;32.55;;;7.80;;
46757;SDS011;32509;47.750;-3.396;2023-03-12T06:00:31;52.03;;;11.40;;
46757;SDS011;32509;47.750;-3.396;2023-03-12T06:02:59;40.17;;;8.43;;
46757;SDS011;32509;47.750;-3.396;2023-03-12T06:05:25;35.50;;;8.02;;
46757;SDS011;32509;47.750;-3.396;2023-03-12T06:07:51;38.95;;;9.50;;
46757;SDS011;32509;47.750;-3.396;2023-03-12T06:10:17;39.72;;;8.95;;
46757;SDS011;32509;47.750;-3.396;2023-03-12T06:12:43;40.25;;;10.00;;
46757;SDS011;32509;47.750;-3.396;2023-03-12T06:15:09;41.80;;;8.18;;
46757;SDS011;32509;47.750;-3.396;2023-03-12T06:17:35;36.13;;;9.38;;
46757;SDS011;32509;47.750;-3.396;2023-03-12T06:20:01;36.90;;;7.97;;
46757;SDS011;32509;47.750;-3.396;2023-03-12T06:22:27;50.72;;;10.15;;
46757;SDS011;32509;47.750;-3.396;2023-03-12T06:24:53;36.85;;;8.25;;
46757;SDS011;32509;47.750;-3.396;2023-03-12T06:27:19;38.58;;;9.10;;
46757;SDS011;32509;47.750;-3.396;2023-03-12T06:29:44;34.38;;;8.50;;
46757;SDS011;32509;47.750;-3.396;2023-03-12T06:32:11;49.05;;;10.57;;
46757;SDS011;32509;47.750;-3.396;2023-03-12T06:34:37;37.95;;;9.25;;
46757;SDS011;32509;47.750;-3.396;2023-03-12T06:37:03;46.85;;;9.63;;
46757;SDS011;32509;47.750;-3.396;2023-03-12T06:39:29;44.47;;;9.93;;
46757;SDS011;32509;47.750;-3.396;2023-03-12T06:41:55;41.58;;;11.18;;
46757;SDS011;32509;47.750;-3.396;2023-03-12T06:44:20;39.05;;;8.65;;
46757;SDS011;32509;47.750;-3.396;2023-03-12T06:46:46;36.25;;;9.55;;
46757;SDS011;32509;47.750;-3.396;2023-03-12T06:49:12;52.90;;;9.40;;
46757;SDS011;32509;47.750;-3.396;2023-03-12T06:51:39;42.90;;;8.75;;
46757;SDS011;32509;47.750;-3.396;2023-03-12T06:54:04;46.60;;;10.80;;
46757;SDS011;32509;47.750;-3.396;2023-03-12T06:56:30;38.72;;;8.98;;
46757;SDS011;32509;47.750;-3.396;2023-03-12T06:58:56;49.38;;;9.40;;
46757;SDS011;32509;47.750;-3.396;2023-03-12T07:01:22;33.72;;;8.38;;
46757;SDS011;32509;47.750;-3.396;2023-03-12T07:03:48;36.90;;;8.02;;
46757;SDS011;32509;47.750;-3.396;2023-03-12T07:06:14;44.17;;;10.18;;
46757;SDS011;32509;47.750;-3.396;2023-03-12T07:08:43;52.13;;;11.30;;
46757;SDS011;32509;47.750;-3.396;2023-03-12T07:11:08;57.75;;;11.93;;
46757;SDS011;32509;47.750;-3.396;2023-03-12T07:13:35;48.15;;;9.88;;
46757;SDS011;32509;47.750;-3.396;2023-03-12T07:16:01;35.22;;;8.77;;
46757;SDS011;32509;47.750;-3.396;2023-03-12T07:18:27;41.60;;;8.95;;
46757;SDS011;32509;47.750;-3.396;2023-03-12T07:20:52;40.83;;;8.90;;
46757;SDS011;32509;47.750;-3.396;2023-03-12T07:23:19;40.50;;;10.35;;
46757;SDS011;32509;47.750;-3.396;2023-03-12T07:25:46;47.83;;;9.82;;
46757;SDS011;32509;47.750;-3.396;2023-03-12T07:28:12;48.33;;;10.63;;
46757;SDS011;32509;47.750;-3.396;2023-03-12T07:30:39;52.90;;;12.43;;
46757;SDS011;32509;47.750;-3.396;2023-03-12T07:33:06;37.42;;;8.02;;
46757;SDS011;32509;47.750;-3.396;2023-03-12T07:35:35;40.90;;;9.52;;
46757;SDS011;32509;47.750;-3.396;2023-03-12T07:38:02;42.35;;;9.15;;
46757;SDS011;32509;47.750;-3.396;2023-03-12T07:40:29;36.35;;;7.88;;
46757;SDS011;32509;47.750;-3.396;2023-03-12T07:42:54;37.88;;;8.52;;
46757;SDS011;32509;47.750;-3.396;2023-03-12T07:45:20;36.67;;;8.43;;
46757;SDS011;32509;47.750;-3.396;2023-03-12T07:47:46;52.47;;;10.95;;
46757;SDS011;32509;47.750;-3.396;2023-03-12T07:50:13;35.00;;;9.30;;
46757;SDS011;32509;47.750;-3.396;2023-03-12T07:52:39;38.70;;;8.77;;
46757;SDS011;32509;47.750;-3.396;2023-03-12T07:55:05;38.90;;;8.75;;
46757;SDS011;32509;47.750;-3.396;2023-03-12T07:57:31;50.42;;;10.80;;
46757;SDS011;32509;47.750;-3.396;2023-03-12T07:59:57;37.47;;;9.73;;
46757;SDS011;32509;47.750;-3.396;2023-03-12T08:02:23;36.90;;;8.48;;
46757;SDS011;32509;47.750;-3.396;2023-03-12T08:04:48;37.30;;;8.35;;
46757;SDS011;32509;47.750;-3.396;2023-03-12T08:07:14;47.83;;;8.80;;
46757;SDS011;32509;47.750;-3.396;2023-03-12T08:09:40;40.25;;;9.55;;
46757;SDS011;32509;47.750;-3.396;2023-03-12T08:12:06;79.35;;;15.07;;
46757;SDS011;32509;47.750;-3.396;2023-03-12T08:14:33;41.65;;;9.45;;
46757;SDS011;32509;47.750;-3.396;2023-03-12T08:16:59;36.70;;;8.05;;
46757;SDS011;32509;47.750;-3.396;2023-03-12T08:19:26;42.55;;;10.30;;
46757;SDS011;32509;47.750;-3.396;2023-03-12T08:21:52;48.53;;;8.20;;
46757;SDS011;32509;47.750;-3.396;2023-03-12T08:24:19;44.45;;;10.70;;
46757;SDS011;32509;47.750;-3.396;2023-03-12T08:26:46;37.92;;;7.65;;
46757;SDS011;32509;47.750;-3.396;2023-03-12T08:29:12;43.63;;;10.85;;
46757;SDS011;32509;47.750;-3.396;2023-03-12T08:31:38;36.83;;;8.70;;
46757;SDS011;32509;47.750;-3.396;2023-03-12T08:34:04;39.33;;;8.63;;
46757;SDS011;32509;47.750;-3.396;2023-03-12T08:36:30;47.85;;;10.57;;
46757;SDS011;32509;47.750;-3.396;2023-03-12T08:38:56;36.15;;;8.20;;
46757;SDS011;32509;47.750;-3.396;2023-03-12T08:41:21;37.63;;;9.32;;
46757;SDS011;32509;47.750;-3.396;2023-03-12T08:43:47;45.60;;;9.75;;
46757;SDS011;32509;47.750;-3.396;2023-03-12T08:46:13;44.35;;;9.10;;
46757;SDS011;32509;47.750;-3.396;2023-03-12T08:48:39;30.55;;;7.90;;
46757;SDS011;32509;47.750;-3.396;2023-03-12T08:51:05;31.10;;;7.43;;
46757;SDS011;32509;47.750;-3.396;2023-03-12T08:53:32;41.65;;;8.70;;
46757;SDS011;32509;47.750;-3.396;2023-03-12T08:55:59;47.92;;;8.55;;
46757;SDS011;32509;47.750;-3.396;2023-03-12T08:58:26;42.67;;;9.30;;
46757;SDS011;32509;47.750;-3.396;2023-03-12T09:00:53;39.70;;;8.68;;
46757;SDS011;32509;47.750;-3.396;2023-03-12T09:03:20;47.10;;;8.93;;
46757;SDS011;32509;47.750;-3.396;2023-03-12T09:05:46;34.25;;;7.35;;
46757;SDS011;32509;47.750;-3.396;2023-03-12T09:08:12;38.17;;;8.25;;
46757;SDS011;32509;47.750;-3.396;2023-03-12T09:10:38;53.92;;;9.57;;
46757;SDS011;32509;47.750;-3.396;2023-03-12T09:13:05;37.13;;;9.43;;
46757;SDS011;32509;47.750;-3.396;2023-03-12T09:15:32;33.88;;;7.43;;
46757;SDS011;32509;47.750;-3.396;2023-03-12T09:17:58;28.23;;;7.35;;
46757;SDS011;32509;47.750;-3.396;2023-03-12T09:20:24;44.13;;;9.70;;
46757;SDS011;32509;47.750;-3.396;2023-03-12T09:22:50;40.25;;;7.57;;
46757;SDS011;32509;47.750;-3.396;2023-03-12T09:25:16;42.13;;;9.50;;
46757;SDS011;32509;47.750;-3.396;2023-03-12T09:27:43;37.53;;;8.32;;
46757;SDS011;32509;47.750;-3.396;2023-03-12T09:30:12;37.55;;;8.88;;
46757;SDS011;32509;47.750;-3.396;2023-03-12T09:32:43;43.05;;;9.05;;
46757;SDS011;32509;47.750;-3.396;2023-03-12T09:35:10;38.05;;;9.15;;
46757;SDS011;32509;47.750;-3.396;2023-03-12T09:37:36;34.40;;;7.78;;
46757;SDS011;32509;47.750;-3.396;2023-03-12T09:40:02;37.25;;;7.70;;
46757;SDS011;32509;47.750;-3.396;2023-03-12T09:45:24;54.58;;;11.07;;
46757;SDS011;32509;47.750;-3.396;2023-03-12T09:47:53;34.58;;;8.82;;
46757;SDS011;32509;47.750;-3.396;2023-03-12T09:55:50;38.60;;;9.82;;
46757;SDS011;32509;47.750;-3.396;2023-03-12T09:58:24;27.33;;;7.63;;
46757;SDS011;32509;47.750;-3.396;2023-03-12T10:06:34;43.28;;;10.30;;
46757;SDS011;32509;47.750;-3.396;2023-03-12T10:15:24;39.78;;;8.45;;
46757;SDS011;32509;47.750;-3.396;2023-03-12T10:21:01;53.53;;;11.70;;
46757;SDS011;32509;47.750;-3.396;2023-03-12T10:26:17;34.65;;;7.85;;
46757;SDS011;32509;47.750;-3.396;2023-03-12T10:31:25;29.35;;;8.30;;
46757;SDS011;32509;47.750;-3.396;2023-03-12T10:33:55;24.25;;;6.57;;
46757;SDS011;32509;47.750;-3.396;2023-03-12T10:36:41;37.72;;;7.13;;
46757;SDS011;32509;47.750;-3.396;2023-03-12T10:39:12;29.60;;;7.72;;
46757;SDS011;32509;47.750;-3.396;2023-03-12T10:41:41;28.80;;;7.22;;
46757;SDS011;32509;47.750;-3.396;2023-03-12T10:44:11;22.20;;;5.65;;
46757;SDS011;32509;47.750;-3.396;2023-03-12T10:46:59;36.03;;;7.32;;
46757;SDS011;32509;47.750;-3.396;2023-03-12T10:49:45;30.13;;;5.68;;
46757;SDS011;32509;47.750;-3.396;2023-03-12T10:52:19;26.98;;;5.97;;
46757;SDS011;32509;47.750;-3.396;2023-03-12T10:54:50;30.42;;;7.45;;
46757;SDS011;32509;47.750;-3.396;2023-03-12T10:57:17;30.15;;;6.53;;
46757;SDS011;32509;47.750;-3.396;2023-03-12T10:59:46;22.08;;;5.82;;
46757;SDS011;32509;47.750;-3.396;2023-03-12T11:02:33;22.33;;;6.15;;
46757;SDS011;32509;47.750;-3.396;2023-03-12T11:05:25;17.92;;;4.72;;
46757;SDS011;32509;47.750;-3.396;2023-03-12T11:07:50;22.45;;;5.60;;
46757;SDS011;32509;47.750;-3.396;2023-03-12T11:10:20;35.22;;;5.95;;
46757;SDS011;32509;47.750;-3.396;2023-03-12T11:12:52;25.63;;;6.18;;
46757;SDS011;32509;47.750;-3.396;2023-03-12T11:15:36;26.38;;;6.22;;
46757;SDS011;32509;47.750;-3.396;2023-03-12T11:20:42;27.48;;;6.38;;
46757;SDS011;32509;47.750;-3.396;2023-03-12T11:23:14;15.50;;;4.60;;
46757;SDS011;32509;47.750;-3.396;2023-03-12T11:25:53;21.02;;;5.13;;
46757;SDS011;32509;47.750;-3.396;2023-03-12T11:28:30;22.33;;;6.43;;
46757;SDS011;32509;47.750;-3.396;2023-03-12T11:31:07;24.33;;;5.90;;
46757;SDS011;32509;47.750;-3.396;2023-03-12T11:33:41;27.83;;;5.95;;
46757;SDS011;32509;47.750;-3.396;2023-03-12T11:36:16;23.58;;;6.22;;
46757;SDS011;32509;47.750;-3.396;2023-03-12T11:50:19;18.02;;;4.53;;
46757;SDS011;32509;47.750;-3.396;2023-03-12T11:55:55;29.67;;;5.72;;
46757;SDS011;32509;47.750;-3.396;2023-03-12T11:58:29;17.33;;;4.28;;
46757;SDS011;32509;47.750;-3.396;2023-03-12T12:04:02;26.08;;;6.20;;
46757;SDS011;32509;47.750;-3.396;2023-03-12T12:10:00;20.02;;;5.68;;
46757;SDS011;32509;47.750;-3.396;2023-03-12T12:26:48;14.57;;;3.50;;
46757;SDS011;32509;47.750;-3.396;2023-03-12T12:32:18;24.80;;;3.88;;
46757;SDS011;32509;47.750;-3.396;2023-03-12T12:40:22;9.25;;;3.38;;
46757;SDS011;32509;47.750;-3.396;2023-03-12T12:45:38;10.98;;;3.15;;
46757;SDS011;32509;47.750;-3.396;2023-03-12T12:48:07;15.80;;;3.85;;
46757;SDS011;32509;47.750;-3.396;2023-03-12T12:50:41;25.80;;;5.93;;
46757;SDS011;32509;47.750;-3.396;2023-03-12T12:53:17;19.27;;;5.35;;
46757;SDS011;32509;47.750;-3.396;2023-03-12T12:55:52;11.75;;;3.38;;
46757;SDS011;32509;47.750;-3.396;2023-03-12T13:01:00;12.18;;;4.40;;
46757;SDS011;32509;47.750;-3.396;2023-03-12T13:03:27;19.13;;;3.78;;
46757;SDS011;32509;47.750;-3.396;2023-03-12T13:05:58;20.23;;;5.07;;
46757;SDS011;32509;47.750;-3.396;2023-03-12T13:08:33;20.00;;;4.73;;
46757;SDS011;32509;47.750;-3.396;2023-03-12T13:11:02;17.55;;;4.25;;
46757;SDS011;32509;47.750;-3.396;2023-03-12T13:13:30;14.45;;;3.78;;
46757;SDS011;32509;47.750;-3.396;2023-03-12T13:18:41;17.38;;;4.63;;
46757;SDS011;32509;47.750;-3.396;2023-03-12T13:21:23;13.95;;;4.20;;
46757;SDS011;32509;47.750;-3.396;2023-03-12T13:24:09;12.10;;;3.35;;
46757;SDS011;32509;47.750;-3.396;2023-03-12T13:27:04;11.90;;;3.97;;
46757;SDS011;32509;47.750;-3.396;2023-03-12T13:29:44;18.92;;;4.45;;
46757;SDS011;32509;47.750;-3.396;2023-03-12T13:34:59;12.65;;;3.80;;
46757;SDS011;32509;47.750;-3.396;2023-03-12T13:43:04;15.88;;;3.65;;
46757;SDS011;32509;47.750;-3.396;2023-03-12T13:45:53;8.23;;;3.30;;
46757;SDS011;32509;47.750;-3.396;2023-03-12T13:48:23;11.27;;;3.50;;
46757;SDS011;32509;47.750;-3.396;2023-03-12T13:50:51;14.70;;;3.90;;
46757;SDS011;32509;47.750;-3.396;2023-03-12T13:53:27;11.00;;;3.63;;
46757;SDS011;32509;47.750;-3.396;2023-03-12T13:56:04;10.80;;;2.60;;
46757;SDS011;32509;47.750;-3.396;2023-03-12T13:58:49;9.85;;;3.28;;
46757;SDS011;32509;47.750;-3.396;2023-03-12T14:01:20;13.10;;;4.03;;
46757;SDS011;32509;47.750;-3.396;2023-03-12T14:03:54;7.25;;;2.25;;
46757;SDS011;32509;47.750;-3.396;2023-03-12T14:17:24;8.93;;;2.55;;
46757;SDS011;32509;47.750;-3.396;2023-03-12T14:22:30;11.98;;;2.85;;
46757;SDS011;32509;47.750;-3.396;2023-03-12T14:25:04;8.48;;;2.88;;
46757;SDS011;32509;47.750;-3.396;2023-03-12T14:27:37;8.13;;;2.60;;
46757;SDS011;32509;47.750;-3.396;2023-03-12T14:32:39;7.32;;;2.75;;
46757;SDS011;32509;47.750;-3.396;2023-03-12T14:35:21;9.57;;;2.35;;
46757;SDS011;32509;47.750;-3.396;2023-03-12T14:37:58;6.35;;;2.20;;
46757;SDS011;32509;47.750;-3.396;2023-03-12T14:43:32;8.20;;;2.80;;
46757;SDS011;32509;47.750;-3.396;2023-03-12T14:46:03;4.32;;;1.90;;
46757;SDS011;32509;47.750;-3.396;2023-03-12T14:48:34;6.70;;;2.38;;
46757;SDS011;32509;47.750;-3.396;2023-03-12T14:51:02;8.73;;;2.08;;
46757;SDS011;32509;47.750;-3.396;2023-03-12T14:53:30;3.92;;;1.77;;
46757;SDS011;32509;47.750;-3.396;2023-03-12T14:56:05;4.75;;;1.45;;
46757;SDS011;32509;47.750;-3.396;2023-03-12T14:58:31;5.57;;;1.90;;
46757;SDS011;32509;47.750;-3.396;2023-03-12T15:00:59;5.68;;;1.88;;
46757;SDS011;32509;47.750;-3.396;2023-03-12T15:03:31;5.05;;;1.60;;
46757;SDS011;32509;47.750;-3.396;2023-03-12T15:06:04;2.85;;;1.23;;
46757;SDS011;32509;47.750;-3.396;2023-03-12T15:08:36;4.68;;;1.38;;
46757;SDS011;32509;47.750;-3.396;2023-03-12T15:11:07;4.38;;;2.05;;
46757;SDS011;32509;47.750;-3.396;2023-03-12T15:13:35;4.35;;;2.05;;
46757;SDS011;32509;47.750;-3.396;2023-03-12T15:16:04;6.30;;;2.63;;
46757;SDS011;32509;47.750;-3.396;2023-03-12T15:18:31;3.75;;;1.90;;
46757;SDS011;32509;47.750;-3.396;2023-03-12T15:20:58;3.55;;;1.48;;
46757;SDS011;32509;47.750;-3.396;2023-03-12T15:23:27;5.43;;;1.75;;
46757;SDS011;32509;47.750;-3.396;2023-03-12T15:26:08;3.60;;;1.70;;
46757;SDS011;32509;47.750;-3.396;2023-03-12T15:28:34;2.97;;;1.58;;
46757;SDS011;32509;47.750;-3.396;2023-03-12T15:31:18;2.65;;;1.75;;
46757;SDS011;32509;47.750;-3.396;2023-03-12T15:33:43;5.85;;;1.73;;
46757;SDS011;32509;47.750;-3.396;2023-03-12T15:36:28;7.18;;;1.75;;
46757;SDS011;32509;47.750;-3.396;2023-03-12T15:38:59;8.40;;;2.65;;
46757;SDS011;32509;47.750;-3.396;2023-03-12T15:41:41;9.50;;;2.40;;
46757;SDS011;32509;47.750;-3.396;2023-03-12T15:44:22;5.30;;;1.88;;
46757;SDS011;32509;47.750;-3.396;2023-03-12T15:47:09;6.32;;;2.05;;
46757;SDS011;32509;47.750;-3.396;2023-03-12T15:49:38;7.65;;;2.92;;
46757;SDS011;32509;47.750;-3.396;2023-03-12T15:52:11;10.13;;;2.40;;
46757;SDS011;32509;47.750;-3.396;2023-03-12T16:02:37;20.08;;;5.60;;
46757;SDS011;32509;47.750;-3.396;2023-03-12T16:05:14;23.42;;;4.88;;
46757;SDS011;32509;47.750;-3.396;2023-03-12T16:07:40;15.02;;;3.35;;
46757;SDS011;32509;47.750;-3.396;2023-03-12T16:10:08;13.32;;;4.03;;
46757;SDS011;32509;47.750;-3.396;2023-03-12T16:12:38;11.05;;;3.53;;
46757;SDS011;32509;47.750;-3.396;2023-03-12T16:15:04;6.05;;;3.58;;
46757;SDS011;32509;47.750;-3.396;2023-03-12T16:17:30;13.80;;;4.10;;
46757;SDS011;32509;47.750;-3.396;2023-03-12T16:19:55;10.70;;;3.90;;
46757;SDS011;32509;47.750;-3.396;2023-03-12T16:22:21;9.20;;;3.55;;
46757;SDS011;32509;47.750;-3.396;2023-03-12T16:24:47;16.77;;;4.35;;
46757;SDS011;32509;47.750;-3.396;2023-03-12T16:27:13;20.63;;;5.28;;
46757;SDS011;32509;47.750;-3.396;2023-03-12T16:29:41;12.18;;;4.03;;
46757;SDS011;32509;47.750;-3.396;2023-03-12T16:32:11;13.27;;;5.68;;
46757;SDS011;32509;47.750;-3.396;2023-03-12T16:34:38;19.58;;;6.22;;